createdAt,value
2018-03-14T00:02:16.370Z,99912.71
2018-03-14T00:04:44.743Z,99913.58
2018-03-14T00:07:13.079Z,99914.05
2018-03-14T00:09:41.435Z,99915.80
2018-03-14T00:12:10.523Z,99922.34
2018-03-14T00:14:39.659Z,99931.53
2018-03-14T00:17:07.983Z,99929.91
2018-03-14T00:19:36.558Z,99933.89
2018-03-14T00:22:04.915Z,99941.75
2018-03-14T00:24:33.267Z,99946.69
2018-03-14T00:27:01.636Z,99944.11
2018-03-14T00:29:29.967Z,99949.04
2018-03-14T00:31:58.340Z,99954.44
2018-03-14T00:34:26.720Z,99960.63
2018-03-14T00:36:55.031Z,99965.07
2018-03-14T00:39:23.356Z,99971.28
2018-03-14T00:41:51.707Z,99973.98
2018-03-14T00:44:20.085Z,99978.83
2018-03-14T00:46:48.414Z,99988.13
2018-03-14T00:49:16.797Z,99981.13
2018-03-14T00:51:45.157Z,99988.63
2018-03-14T00:54:13.487Z,99982.95
2018-03-14T00:56:41.817Z,99982.98
2018-03-14T00:59:10.177Z,99987.38
2018-03-14T01:01:38.539Z,99989.64
2018-03-14T01:04:06.907Z,99989.20
2018-03-14T01:06:35.235Z,99989.23
2018-03-14T01:09:03.603Z,99997.11
2018-03-14T01:11:31.939Z,99995.81
2018-03-14T01:14:00.301Z,100002.80
2018-03-14T01:16:29.381Z,100001.93
2018-03-14T01:18:57.701Z,100006.41
2018-03-14T01:21:26.109Z,100012.54
2018-03-14T01:23:54.387Z,100018.30
2018-03-14T01:26:22.751Z,100015.67
2018-03-14T01:28:51.083Z,100018.80
2018-03-14T01:31:19.842Z,100024.08
2018-03-14T01:33:48.214Z,100029.81
2018-03-14T01:36:16.548Z,100036.90
2018-03-14T01:38:44.873Z,100038.70
2018-03-14T01:41:13.247Z,100034.41
2018-03-14T01:43:41.570Z,100040.97
2018-03-14T01:46:09.921Z,100044.97
2018-03-14T01:48:38.255Z,100048.95
2018-03-14T01:51:06.626Z,100052.50
2018-03-14T01:53:34.967Z,100050.80
2018-03-14T01:56:04.084Z,100058.66
2018-03-14T01:58:32.442Z,100057.78
2018-03-14T02:01:01.582Z,100056.04
2018-03-14T02:03:29.927Z,100064.77
2018-03-14T02:05:58.255Z,100064.77
2018-03-14T02:08:26.623Z,100069.14
2018-03-14T02:10:54.950Z,100075.22
2018-03-14T02:13:24.082Z,100072.59
2018-03-14T02:15:52.444Z,100077.84
2018-03-14T02:18:20.885Z,100077.84
2018-03-14T02:20:50.010Z,100083.47
2018-03-14T02:23:19.134Z,100081.33
2018-03-14T02:25:47.870Z,100089.63
2018-03-14T02:28:16.321Z,100098.41
2018-03-14T02:30:44.877Z,100101.95
2018-03-14T02:33:13.196Z,100115.13
2018-03-14T02:35:42.754Z,100114.69
2018-03-14T02:38:11.306Z,100126.50
2018-03-14T02:40:39.686Z,100121.73
2018-03-14T02:43:08.067Z,100126.55
2018-03-14T02:45:37.191Z,100120.91
2018-03-14T02:48:05.566Z,100132.25
2018-03-14T02:50:34.938Z,100128.32
2018-03-14T02:53:04.186Z,100130.51
2018-03-14T02:55:33.886Z,100128.31
2018-03-14T02:58:02.753Z,100135.30
2018-03-14T03:00:31.829Z,100137.05
2018-03-14T03:03:00.172Z,100137.92
2018-03-14T03:05:29.281Z,100143.59
2018-03-14T03:07:57.666Z,100140.52
2018-03-14T03:10:27.201Z,100143.57
2018-03-14T03:12:56.482Z,100149.23
2018-03-14T03:15:24.803Z,100152.72
2018-03-14T03:17:53.159Z,100159.27
2018-03-14T03:20:22.357Z,100152.26
2018-03-14T03:22:51.446Z,100158.80
2018-03-14T03:25:20.552Z,100159.25
2018-03-14T03:27:48.884Z,100161.44
2018-03-14T03:30:17.239Z,100170.14
2018-03-14T03:32:45.587Z,100169.27
2018-03-14T03:35:14.673Z,100164.89
2018-03-14T03:37:43.822Z,100171.88
2018-03-14T03:40:12.178Z,100174.50
2018-03-14T03:42:40.486Z,100174.91
2018-03-14T03:45:08.828Z,100175.78
2018-03-14T03:47:37.142Z,100178.44
2018-03-14T03:50:05.453Z,100178.00
2018-03-14T03:52:34.671Z,100182.77
2018-03-14T03:55:02.996Z,100186.23
2018-03-14T03:57:31.365Z,100190.64
2018-03-14T03:59:59.697Z,100188.45
2018-03-14T04:02:28.095Z,100191.94
2018-03-14T04:04:56.396Z,100189.77
2018-03-14T04:07:24.922Z,100193.69
2018-03-14T04:09:53.255Z,100196.33
2018-03-14T04:12:21.613Z,100201.55
2018-03-14T04:14:49.979Z,100202.88
2018-03-14T04:17:18.414Z,100204.20
2018-03-14T04:19:47.484Z,100213.37
2018-03-14T04:22:15.857Z,100209.87
2018-03-14T04:24:44.193Z,100209.42
2018-03-14T04:27:12.618Z,100216.42
2018-03-14T04:29:41.041Z,100213.37
2018-03-14T04:32:10.130Z,100214.65
2018-03-14T04:34:39.257Z,100218.99
2018-03-14T04:37:07.951Z,100213.75
2018-03-14T04:39:36.299Z,100219.86
2018-03-14T04:42:04.681Z,100217.69
2018-03-14T04:44:33.836Z,100221.61
2018-03-14T04:47:02.729Z,100225.11
2018-03-14T04:49:31.103Z,100224.67
2018-03-14T04:51:59.512Z,100225.58
2018-03-14T04:54:28.035Z,100228.61
2018-03-14T04:56:57.273Z,100229.94
2018-03-14T04:59:25.588Z,100226.83
2018-03-14T05:01:53.955Z,100225.11
2018-03-14T05:04:22.386Z,100233.41
2018-03-14T05:06:50.703Z,100234.26
2018-03-14T05:09:19.813Z,100233.38
2018-03-14T05:11:48.126Z,100236.00
2018-03-14T05:14:16.602Z,100242.99
2018-03-14T05:16:44.925Z,100248.23
2018-03-14T05:19:15.142Z,100249.52
2018-03-14T05:21:44.283Z,100246.90
2018-03-14T05:24:12.664Z,100253.45
2018-03-14T05:26:41.197Z,100248.65
2018-03-14T05:29:11.393Z,100257.39
2018-03-14T05:31:39.817Z,100251.70
2018-03-14T05:34:10.087Z,100266.51
2018-03-14T05:36:38.440Z,100267.38
2018-03-14T05:39:08.541Z,100264.33
2018-03-14T05:41:37.977Z,100270.88
2018-03-14T05:44:07.112Z,100272.19
2018-03-14T05:46:36.411Z,100282.21
2018-03-14T05:49:04.723Z,100282.65
2018-03-14T05:51:34.932Z,100278.25
2018-03-14T05:54:04.101Z,100278.72
2018-03-14T05:56:32.424Z,100277.84
2018-03-14T05:59:01.585Z,100279.56
2018-03-14T06:01:30.707Z,100288.30
2018-03-14T06:03:59.077Z,100286.55
2018-03-14T06:06:27.512Z,100295.30
2018-03-14T06:08:55.818Z,100286.59
2018-03-14T06:11:24.976Z,100292.67
2018-03-14T06:13:53.328Z,100299.63
2018-03-14T06:16:21.781Z,100301.38
2018-03-14T06:18:50.964Z,100307.94
2018-03-14T06:21:19.404Z,100309.25
2018-03-14T06:23:48.761Z,100309.66
2018-03-14T06:26:17.853Z,100315.27
2018-03-14T06:28:46.959Z,100312.64
2018-03-14T06:31:15.863Z,100322.70
2018-03-14T06:33:44.989Z,100323.53
2018-03-14T06:36:13.309Z,100318.67
2018-03-14T06:38:41.839Z,100321.18
2018-03-14T06:41:10.272Z,100330.64
2018-03-14T06:43:39.351Z,100333.13
2018-03-14T06:46:07.695Z,100340.45
2018-03-14T06:48:36.050Z,100341.87
2018-03-14T06:51:04.367Z,100342.47
2018-03-14T06:53:32.729Z,100346.41
2018-03-14T06:56:01.077Z,100342.03
2018-03-14T06:58:47.032Z,100354.33
2018-03-14T07:04:39.360Z,100348.09
2018-03-14T07:07:07.709Z,100351.96
2018-03-14T07:09:36.027Z,100348.09
2018-03-14T07:12:04.380Z,100355.04
2018-03-14T07:14:32.692Z,100360.28
2018-03-14T07:17:01.026Z,100361.16
2018-03-14T07:19:29.335Z,100357.22
2018-03-14T07:21:57.698Z,100364.23
2018-03-14T07:24:26.002Z,100372.11
2018-03-14T07:26:54.359Z,100367.59
2018-03-14T07:29:22.673Z,100366.95
2018-03-14T07:31:51.800Z,100382.27
2018-03-14T07:34:20.144Z,100384.39
2018-03-14T07:36:49.277Z,100380.52
2018-03-14T07:39:17.614Z,100383.23
2018-03-14T07:41:46.748Z,100384.11
2018-03-14T07:44:15.080Z,100386.80
2018-03-14T07:46:43.955Z,100385.06
2018-03-14T07:49:12.295Z,100386.60
2018-03-14T07:51:40.614Z,100386.80
2018-03-14T07:54:08.960Z,100383.70
2018-03-14T07:56:37.280Z,100387.14
2018-03-14T07:59:06.400Z,100384.84
2018-03-14T08:01:34.702Z,100394.41
2018-03-14T08:04:03.068Z,100390.63
2018-03-14T08:06:31.404Z,100391.06
2018-03-14T08:08:59.760Z,100389.23
2018-03-14T08:11:28.098Z,100394.06
2018-03-14T08:13:56.482Z,100394.91
2018-03-14T08:16:24.803Z,100390.09
2018-03-14T08:18:53.148Z,100391.86
2018-03-14T08:21:21.463Z,100388.89
2018-03-14T08:23:49.818Z,100391.17
2018-03-14T08:26:18.135Z,100394.75
2018-03-14T08:28:47.236Z,100394.91
2018-03-14T08:31:16.348Z,100397.62
2018-03-14T08:33:44.665Z,100402.87
2018-03-14T08:36:13.017Z,100399.80
2018-03-14T08:38:41.332Z,100399.05
2018-03-14T08:41:09.694Z,100402.64
2018-03-14T08:43:38.049Z,100405.05
2018-03-14T08:46:06.375Z,100405.17
2018-03-14T08:48:34.730Z,100406.27
2018-03-14T08:51:03.048Z,100399.98
2018-03-14T08:53:32.142Z,100408.16
2018-03-14T08:56:01.230Z,100404.27
2018-03-14T08:58:30.355Z,100404.50
2018-03-14T09:00:58.680Z,100414.48
2018-03-14T09:03:26.992Z,100416.78
2018-03-14T09:05:56.115Z,100421.86
2018-03-14T09:08:24.419Z,100420.56
2018-03-14T09:10:52.761Z,100421.89
2018-03-14T09:13:21.068Z,100424.94
2018-03-14T09:15:49.423Z,100426.31
2018-03-14T09:18:17.735Z,100427.84
2018-03-14T09:20:46.083Z,100424.23
2018-03-14T09:23:14.411Z,100424.58
2018-03-14T09:25:42.705Z,100432.08
2018-03-14T09:28:11.042Z,100432.39
2018-03-14T09:30:39.384Z,100430.90
2018-03-14T09:33:07.715Z,100434.70
2018-03-14T09:35:36.059Z,100435.64
2018-03-14T09:38:04.375Z,100432.72
2018-03-14T09:40:33.496Z,100429.80
2018-03-14T09:43:01.859Z,100438.23
2018-03-14T09:45:30.979Z,100436.20
2018-03-14T09:47:59.287Z,100438.89
2018-03-14T09:50:27.632Z,100433.89
2018-03-14T09:52:55.960Z,100433.23
2018-03-14T09:55:24.322Z,100441.70
2018-03-14T09:57:52.627Z,100444.10
2018-03-14T10:00:21.739Z,100445.00
2018-03-14T10:02:50.061Z,100444.05
2018-03-14T10:05:18.415Z,100443.90
2018-03-14T10:07:46.746Z,100447.02
2018-03-14T10:10:15.093Z,100440.52
2018-03-14T10:12:43.403Z,100447.90
2018-03-14T10:15:11.726Z,100445.23
2018-03-14T10:17:40.080Z,100449.95
2018-03-14T10:20:08.405Z,100454.00
2018-03-14T10:22:36.755Z,100452.79
2018-03-14T10:25:05.045Z,100451.19
2018-03-14T10:27:33.391Z,100453.03
2018-03-14T10:30:01.710Z,100455.04
2018-03-14T10:32:30.059Z,100450.63
2018-03-14T10:34:58.429Z,100455.94
2018-03-14T10:37:26.720Z,100451.65
2018-03-14T10:39:55.022Z,100455.20
2018-03-14T10:42:23.371Z,100451.58
2018-03-14T10:44:51.685Z,100454.92
2018-03-14T10:47:20.015Z,100451.65
2018-03-14T10:49:48.344Z,100453.45
2018-03-14T10:52:16.666Z,100456.67
2018-03-14T10:54:44.998Z,100455.72
2018-03-14T10:57:13.408Z,100452.62
2018-03-14T10:59:42.528Z,100450.11
2018-03-14T11:02:15.789Z,100454.80
2018-03-14T11:04:44.894Z,100451.06
2018-03-14T11:07:13.977Z,100462.17
2018-03-14T11:09:43.094Z,100458.24
2018-03-14T11:12:11.818Z,100454.16
2018-03-14T11:14:40.132Z,100451.88
2018-03-14T11:17:09.246Z,100461.61
2018-03-14T11:19:37.610Z,100453.08
2018-03-14T11:22:06.706Z,100458.73
2018-03-14T11:24:35.002Z,100452.93
2018-03-14T11:27:03.351Z,100449.23
2018-03-14T11:29:32.424Z,100450.25
2018-03-14T11:32:00.766Z,100453.64
2018-03-14T11:34:29.084Z,100448.05
2018-03-14T11:36:57.430Z,100428.89
2018-03-14T11:39:25.774Z,100450.98
2018-03-14T11:41:54.855Z,100448.41
2018-03-14T11:44:23.961Z,100449.11
2018-03-14T11:46:52.300Z,100455.33
2018-03-14T11:49:20.634Z,100454.37
2018-03-14T11:51:48.952Z,100452.80
2018-03-14T11:54:17.298Z,100460.36
2018-03-14T11:56:45.622Z,100464.54
2018-03-14T11:59:13.984Z,100464.13
2018-03-14T12:01:42.300Z,100461.97
2018-03-14T12:04:11.425Z,100464.05
2018-03-14T12:06:39.747Z,100460.05
2018-03-14T12:09:08.104Z,100462.52
2018-03-14T12:11:36.408Z,100456.06
2018-03-14T12:14:04.723Z,100458.37
2018-03-14T12:16:33.057Z,100450.55
2018-03-14T12:19:01.359Z,100455.58
2018-03-14T12:21:30.478Z,100459.95
2018-03-14T12:23:58.785Z,100457.67
2018-03-14T12:26:27.133Z,100455.31
2018-03-14T12:28:55.437Z,100453.45
2018-03-14T12:31:23.776Z,100453.70
2018-03-14T12:33:52.094Z,100455.92
2018-03-14T12:36:20.430Z,100396.67
2018-03-14T12:38:48.751Z,100448.48
2018-03-14T12:41:17.080Z,100452.34
2018-03-14T12:43:45.394Z,100450.87
2018-03-14T12:46:13.756Z,100454.55
2018-03-14T12:48:42.097Z,100456.50
2018-03-14T12:51:11.212Z,100457.49
2018-03-14T12:53:39.606Z,100456.97
2018-03-14T12:56:07.922Z,100457.49
2018-03-14T12:58:36.272Z,100453.09
2018-03-14T13:01:04.582Z,100453.63
2018-03-14T13:03:32.958Z,100451.95
2018-03-14T13:06:01.283Z,100448.02
2018-03-14T13:08:29.632Z,100457.37
2018-03-14T13:10:58.713Z,100463.73
2018-03-14T13:13:27.011Z,100457.89
2018-03-14T13:15:56.133Z,100470.38
2018-03-14T13:18:24.443Z,100469.58
2018-03-14T13:20:52.765Z,100468.28
2018-03-14T13:23:21.118Z,100472.30
2018-03-14T13:25:49.481Z,100472.39
2018-03-14T13:28:17.781Z,100483.12
2018-03-14T13:30:46.864Z,100480.13
2018-03-14T13:33:15.244Z,100480.63
2018-03-14T13:35:43.572Z,100479.37
2018-03-14T13:38:11.993Z,100479.33
2018-03-14T13:40:40.296Z,100477.20
2018-03-14T13:43:09.425Z,100481.16
2018-03-14T13:45:37.775Z,100483.35
2018-03-14T13:48:06.099Z,100481.22
2018-03-14T13:50:34.456Z,100490.94
2018-03-14T13:53:02.809Z,100488.80
2018-03-14T13:55:31.151Z,100488.47
2018-03-14T13:57:59.463Z,100487.21
2018-03-14T14:00:28.574Z,100488.09
2018-03-14T14:02:56.891Z,100481.89
2018-03-14T14:05:25.252Z,100488.34
2018-03-14T14:07:54.336Z,100482.58
2018-03-14T14:10:23.042Z,100479.04
2018-03-14T14:12:52.257Z,100458.98
2018-03-14T14:15:20.613Z,100467.13
2018-03-14T14:17:48.939Z,100474.50
2018-03-14T14:20:18.010Z,100475.81
2018-03-14T14:22:46.381Z,100475.39
2018-03-14T14:25:14.687Z,100476.77
2018-03-14T14:27:42.997Z,100476.74
2018-03-14T14:30:11.366Z,100473.63
2018-03-14T14:32:39.711Z,100476.67
2018-03-14T14:35:08.792Z,100483.39
2018-03-14T14:37:37.140Z,100486.03
2018-03-14T14:40:05.501Z,100486.92
2018-03-14T14:42:34.629Z,100486.41
2018-03-14T14:45:02.940Z,100485.03
2018-03-14T14:47:31.295Z,100487.22
2018-03-14T14:49:59.590Z,100490.73
2018-03-14T14:52:28.688Z,100482.03
2018-03-14T14:54:57.796Z,100483.42
2018-03-14T14:57:26.109Z,100478.67
2018-03-14T14:59:54.737Z,100480.85
2018-03-14T15:02:23.816Z,100479.09
2018-03-14T15:04:52.169Z,100480.33
2018-03-14T15:07:20.477Z,100485.58
2018-03-14T15:09:48.824Z,100480.32
2018-03-14T15:12:17.137Z,100476.41
2018-03-14T15:14:46.257Z,100480.34
2018-03-14T15:17:14.599Z,100474.26
2018-03-14T15:19:42.947Z,100483.47
2018-03-14T15:22:11.284Z,100482.66
2018-03-14T15:24:39.609Z,100479.60
2018-03-14T15:27:07.961Z,100481.84
2018-03-14T15:29:37.095Z,100475.32
2018-03-14T15:32:05.445Z,100470.07
2018-03-14T15:34:33.772Z,100471.38
2018-03-14T15:37:02.893Z,100452.98
2018-03-14T15:39:31.210Z,100468.25
2018-03-14T15:41:59.569Z,100470.87
2018-03-14T15:44:27.895Z,100475.28
2018-03-14T15:46:56.241Z,100467.44
2018-03-14T15:49:24.553Z,100472.70
2018-03-14T15:51:54.050Z,100474.89
2018-03-14T15:54:22.382Z,100470.94
2018-03-14T15:56:50.730Z,100474.40
2018-03-14T15:59:19.677Z,100472.25
2018-03-14T16:01:48.362Z,100472.65
2018-03-14T16:04:16.720Z,100480.09
2018-03-14T16:06:45.789Z,100480.52
2018-03-14T16:09:15.370Z,100471.33
2018-03-14T16:11:44.483Z,100476.21
2018-03-14T16:14:12.844Z,100481.53
2018-03-14T16:16:41.934Z,100485.08
2018-03-14T16:19:11.112Z,100483.81
2018-03-14T16:21:39.423Z,100484.77
2018-03-14T16:24:08.714Z,100490.47
2018-03-14T16:26:38.199Z,100490.91
2018-03-14T16:29:06.560Z,100490.11
2018-03-14T16:31:34.952Z,100490.55
2018-03-14T16:34:03.610Z,100493.64
2018-03-14T16:36:31.937Z,100496.73
2018-03-14T16:39:27.009Z,100501.98
2018-03-14T16:41:55.488Z,100500.70
2018-03-14T16:44:29.619Z,100499.82
2018-03-14T16:46:59.107Z,100502.88
2018-03-14T16:49:27.555Z,100504.63
2018-03-14T16:52:09.058Z,100510.31
2018-03-14T16:54:37.408Z,100510.77
2018-03-14T16:57:06.982Z,100502.45
2018-03-14T16:59:36.527Z,100504.64
2018-03-14T17:02:06.316Z,100505.08
2018-03-14T17:04:34.773Z,100509.91
2018-03-14T17:07:03.130Z,100514.28
2018-03-14T17:09:32.294Z,100512.09
2018-03-14T17:12:00.932Z,100519.97
2018-03-14T17:14:30.776Z,100516.90
2018-03-14T17:17:02.286Z,100520.85
2018-03-14T17:19:31.824Z,100521.30
2018-03-14T17:22:00.294Z,100517.81
2018-03-14T17:24:29.516Z,100520.86
2018-03-14T17:26:57.843Z,100523.06
2018-03-14T17:29:26.595Z,100522.63
2018-03-14T17:31:54.936Z,100520.44
2018-03-14T17:34:23.323Z,100524.80
2018-03-14T17:36:54.137Z,100526.99
2018-03-14T17:39:22.492Z,100528.73
2018-03-14T17:41:50.803Z,100526.11
2018-03-14T17:44:19.945Z,100523.92
2018-03-14T17:46:49.510Z,100524.77
2018-03-14T17:49:19.376Z,100530.04
2018-03-14T17:51:48.507Z,100529.19
2018-03-14T17:54:17.628Z,100530.50
2018-03-14T17:56:47.330Z,100537.05
2018-03-14T17:59:15.683Z,100537.48
2018-03-14T18:01:44.051Z,100528.30
2018-03-14T18:04:13.000Z,100527.41
2018-03-14T18:06:42.125Z,100533.55
2018-03-14T18:09:10.611Z,100533.97
2018-03-14T18:11:39.936Z,100530.03
2018-03-14T18:14:09.018Z,100530.92
2018-03-14T18:16:39.051Z,100531.79
2018-03-14T18:19:07.827Z,100533.11
2018-03-14T18:21:36.204Z,100533.13
2018-03-14T18:24:04.537Z,100529.62
2018-03-14T18:26:33.110Z,100533.53
2018-03-14T18:29:01.986Z,100533.53
2018-03-14T18:31:30.703Z,100533.97
2018-03-14T18:33:59.148Z,100540.95
2018-03-14T18:36:27.466Z,100537.46
2018-03-14T18:38:55.851Z,100530.05
2018-03-14T18:41:24.184Z,100533.97
2018-03-14T18:43:52.542Z,100534.42
2018-03-14T18:46:21.674Z,100535.72
2018-03-14T18:48:50.005Z,100533.55
2018-03-14T18:51:19.127Z,100535.73
2018-03-14T18:53:47.451Z,100534.42
2018-03-14T18:56:16.730Z,100532.67
2018-03-14T18:58:45.106Z,100533.97
2018-03-14T19:01:13.470Z,100534.41
2018-03-14T19:03:41.860Z,100530.47
2018-03-14T19:06:10.213Z,100530.91
2018-03-14T19:08:38.530Z,100533.97
2018-03-14T19:11:07.060Z,100527.43
2018-03-14T19:13:35.490Z,100525.22
2018-03-14T19:16:03.805Z,100527.41
2018-03-14T19:18:33.540Z,100529.14
2018-03-14T19:21:02.111Z,100526.92
2018-03-14T19:23:31.249Z,100526.47
2018-03-14T19:25:59.555Z,100530.84
2018-03-14T19:28:28.577Z,100529.98
2018-03-14T19:30:57.768Z,100530.43
2018-03-14T19:33:26.860Z,100531.31
2018-03-14T19:35:56.599Z,100535.67
2018-03-14T19:38:24.932Z,100535.27
2018-03-14T19:40:53.269Z,100536.11
2018-03-14T19:43:23.235Z,100539.13
2018-03-14T19:45:53.286Z,100535.64
2018-03-14T19:48:21.873Z,100541.27
2018-03-14T19:50:51.638Z,100539.53
2018-03-14T19:53:20.830Z,100544.33
2018-03-14T19:55:49.206Z,100548.25
2018-03-14T19:58:18.422Z,100548.25
2018-03-14T20:00:49.144Z,100540.39
2018-03-14T20:03:17.928Z,100473.91
2018-03-14T20:05:47.060Z,100542.14
2018-03-14T20:08:16.317Z,100546.48
2018-03-14T20:10:44.658Z,100545.17
2018-03-14T20:13:14.468Z,100542.13
2018-03-14T20:15:42.871Z,100549.12
2018-03-14T20:18:11.206Z,100543.91
2018-03-14T20:20:41.553Z,100541.66
2018-03-14T20:23:10.002Z,100539.08
2018-03-14T20:25:40.203Z,100535.56
2018-03-14T20:28:08.541Z,100528.13
2018-03-14T20:30:36.943Z,100541.25
2018-03-14T20:33:05.937Z,100539.95
2018-03-14T20:35:34.279Z,100535.59
2018-03-14T20:38:02.811Z,100536.03
2018-03-14T20:40:31.136Z,100539.08
2018-03-14T20:43:01.734Z,100532.52
2018-03-14T20:45:31.277Z,100539.07
2018-03-14T20:48:00.635Z,100541.69
2018-03-14T20:50:30.509Z,100540.81
2018-03-14T20:52:58.858Z,100539.94
2018-03-14T20:55:28.424Z,100534.30
2018-03-14T20:57:57.603Z,100536.92
2018-03-14T21:00:26.397Z,100534.73
2018-03-14T21:02:54.792Z,100526.88
2018-03-14T21:05:24.178Z,100524.23
2018-03-14T21:07:52.811Z,100527.31
2018-03-14T21:10:23.230Z,100527.73
2018-03-14T21:12:53.890Z,100528.17
2018-03-14T21:15:22.775Z,100525.10
2018-03-14T21:17:51.874Z,100517.69
2018-03-14T21:20:20.493Z,100521.63
2018-03-14T21:22:48.885Z,100524.23
2018-03-14T21:25:18.894Z,100518.56
2018-03-14T21:27:49.904Z,100521.16
2018-03-14T21:30:18.261Z,100521.16
2018-03-14T21:32:48.226Z,100518.53
2018-03-14T21:35:18.212Z,100520.76
2018-03-14T21:37:46.625Z,100518.59
2018-03-14T21:40:16.436Z,100526.88
2018-03-14T21:42:45.644Z,100524.69
2018-03-14T21:45:15.101Z,100522.92
2018-03-14T21:47:44.271Z,100516.36
2018-03-14T21:50:12.837Z,100520.72
2018-03-14T21:52:41.871Z,100517.73
2018-03-14T21:55:10.836Z,100519.42
2018-03-14T21:57:41.521Z,100519.84
2018-03-14T22:00:10.635Z,100515.45
2018-03-14T22:02:39.596Z,100508.03
2018-03-14T22:05:08.521Z,100511.08
2018-03-14T22:07:37.684Z,100510.65
2018-03-14T22:10:06.784Z,100512.84
2018-03-14T22:12:35.769Z,100512.86
2018-03-14T22:15:05.472Z,100510.72
2018-03-14T22:17:34.385Z,100510.23
2018-03-14T22:20:02.961Z,100515.45
2018-03-14T22:22:32.175Z,100515.89
2018-03-14T22:25:01.217Z,100521.13
2018-03-14T22:27:30.721Z,100515.86
2018-03-14T22:29:59.037Z,100511.06
2018-03-14T22:32:27.493Z,100514.56
2018-03-14T22:34:56.692Z,100519.77
2018-03-14T22:37:25.093Z,100516.69
2018-03-14T22:39:53.501Z,100521.92
2018-03-14T22:42:21.848Z,100524.98
2018-03-14T22:44:50.601Z,100530.25
2018-03-14T22:47:18.950Z,100520.66
2018-03-14T22:49:48.624Z,100518.47
2018-03-14T22:52:17.134Z,100518.45
2018-03-14T22:54:47.353Z,100520.17
2018-03-14T22:57:16.485Z,100513.17
2018-03-14T22:59:45.588Z,100516.69
2018-03-14T23:02:14.843Z,100519.34
2018-03-14T23:04:43.909Z,100522.00
2018-03-14T23:07:12.407Z,100518.03
2018-03-14T23:09:41.532Z,100513.20
2018-03-14T23:12:10.035Z,100523.69
2018-03-14T23:14:38.377Z,100522.80
2018-03-14T23:17:07.451Z,100523.22
2018-03-14T23:19:35.791Z,100520.61
2018-03-14T23:22:05.187Z,100514.91
2018-03-14T23:24:33.555Z,100514.94
2018-03-14T23:27:02.712Z,100517.12
2018-03-14T23:29:32.220Z,100515.81
2018-03-14T23:32:02.130Z,100515.34
2018-03-14T23:34:32.020Z,100508.40
2018-03-14T23:37:00.376Z,100513.64
2018-03-14T23:39:28.698Z,100515.84
2018-03-14T23:41:57.775Z,100518.04
2018-03-14T23:44:26.105Z,100514.14
2018-03-14T23:46:54.671Z,100516.34
2018-03-14T23:49:23.176Z,100511.09
2018-03-14T23:51:51.919Z,100512.34
2018-03-14T23:54:21.932Z,100512.75
2018-03-14T23:56:50.328Z,100514.52
2018-03-14T23:59:19.656Z,100508.42
